Time;durP1;ratioP1;P1;durP2;ratioP2;P2;SDS_P1;SDS_P2;PMS_P1;PMS_P2;Temp;Humidity;BMP_temperature;BMP_pressure;BME280_temperature;BME280_humidity;BME280_pressure;Samples;Min_cycle;Max_cycle;Signal;HPM_P1;HPM_P2
2023/06/25 00:01:48;;;;;;;7.80;4.03;;;;;;;;;;5027404;28;20451;-51
2023/06/25 00:04:14;;;;;;;5.20;4.60;;;;;;;;;;5030514;28;20188;-51
2023/06/25 00:06:40;;;;;;;5.57;4.38;;;;;;;;;;5034463;28;20183;-51
2023/06/25 00:09:06;;;;;;;5.15;4.20;;;;;;;;;;5033954;28;20176;-51
2023/06/25 00:11:32;;;;;;;4.70;4.28;;;;;;;;;;5030414;28;20222;-51
2023/06/25 00:13:58;;;;;;;6.75;4.03;;;;;;;;;;5024031;28;20227;-51
2023/06/25 00:16:25;;;;;;;5.53;4.28;;;;;;;;;;5035581;28;20458;-51
2023/06/25 00:18:51;;;;;;;5.80;4.60;;;;;;;;;;5014936;28;20172;-51
2023/06/25 00:21:17;;;;;;;4.97;4.47;;;;;;;;;;5028133;28;20175;-51
2023/06/25 00:23:43;;;;;;;7.38;4.40;;;;;;;;;;5026293;28;20184;-51
2023/06/25 00:26:09;;;;;;;4.57;4.07;;;;;;;;;;5027146;28;20354;-51
2023/06/25 00:28:34;;;;;;;6.15;4.32;;;;;;;;;;5032661;28;20188;-51
2023/06/25 00:31:00;;;;;;;6.40;4.30;;;;;;;;;;5014917;28;20185;-51
2023/06/25 00:33:26;;;;;;;4.70;4.10;;;;;;;;;;5033455;28;20265;-51
2023/06/25 00:35:55;;;;;;;5.78;4.10;;;;;;;;;;5028776;28;20219;-51
2023/06/25 00:38:21;;;;;;;5.40;4.35;;;;;;;;;;5029893;28;20792;-51
2023/06/25 00:40:47;;;;;;;4.95;3.72;;;;;;;;;;5022833;28;20208;-51
2023/06/25 00:43:16;;;;;;;5.40;4.63;;;;;;;;;;5029521;28;20198;-51
2023/06/25 00:45:42;;;;;;;5.10;3.70;;;;;;;;;;5028999;28;20199;-51
2023/06/25 00:48:08;;;;;;;4.78;3.70;;;;;;;;;;5020012;28;20708;-51
2023/06/25 00:50:34;;;;;;;5.47;4.20;;;;;;;;;;5031371;28;20219;-51
2023/06/25 00:53:02;;;;;;;5.78;3.83;;;;;;;;;;5023321;28;20530;-51
2023/06/25 00:55:28;;;;;;;5.00;4.03;;;;;;;;;;5020347;28;20491;-51
2023/06/25 00:57:55;;;;;;;4.85;4.05;;;;;;;;;;5023440;28;20181;-51
2023/06/25 01:00:24;;;;;;;6.10;4.10;;;;;;;;;;5024243;28;20241;-51
2023/06/25 01:03:03;;;;;;;4.50;3.95;;;;;;;;;;5027922;28;20225;-51
2023/06/25 01:05:32;;;;;;;4.85;3.75;;;;;;;;;;5019987;28;20227;-51
2023/06/25 01:07:59;;;;;;;4.07;3.65;;;;;;;;;;5033817;28;20203;-51
2023/06/25 01:10:26;;;;;;;4.00;3.60;;;;;;;;;;5025644;28;20184;-51
2023/06/25 01:12:52;;;;;;;10.68;4.15;;;;;;;;;;5030301;28;20185;-51
2023/06/25 01:15:18;;;;;;;9.75;4.25;;;;;;;;;;5018054;28;20564;-51
2023/06/25 01:17:48;;;;;;;5.57;4.40;;;;;;;;;;5021350;28;20193;-51
2023/06/25 01:20:15;;;;;;;4.55;3.55;;;;;;;;;;5019308;28;20214;-51
2023/06/25 01:22:41;;;;;;;6.18;3.45;;;;;;;;;;5025787;28;20264;-51
2023/06/25 01:25:08;;;;;;;4.60;3.88;;;;;;;;;;5034015;28;20570;-51
2023/06/25 01:27:34;;;;;;;5.10;4.28;;;;;;;;;;5024214;28;20212;-51
2023/06/25 01:30:00;;;;;;;4.70;4.07;;;;;;;;;;5017806;28;20184;-51
2023/06/25 01:32:26;;;;;;;4.78;3.92;;;;;;;;;;5025392;28;20184;-51
2023/06/25 01:34:52;;;;;;;5.30;3.67;;;;;;;;;;5013115;28;20215;-52
2023/06/25 01:37:18;;;;;;;3.90;3.53;;;;;;;;;;5019286;28;20191;-51
2023/06/25 01:39:46;;;;;;;4.20;3.80;;;;;;;;;;5031065;28;20187;-51
2023/06/25 01:42:12;;;;;;;6.40;4.20;;;;;;;;;;5030906;28;20183;-51
2023/06/25 01:44:39;;;;;;;6.45;4.15;;;;;;;;;;5026856;28;20194;-51
2023/06/25 01:47:05;;;;;;;7.57;3.80;;;;;;;;;;5018205;28;20172;-51
2023/06/25 01:49:31;;;;;;;4.97;4.18;;;;;;;;;;5023972;28;20188;-51
2023/06/25 01:51:57;;;;;;;4.55;3.63;;;;;;;;;;5022006;28;20187;-51
2023/06/25 01:54:23;;;;;;;4.65;3.60;;;;;;;;;;5025317;28;20207;-51
2023/06/25 01:56:49;;;;;;;5.30;3.38;;;;;;;;;;5016497;28;20181;-51
2023/06/25 01:59:15;;;;;;;5.78;3.40;;;;;;;;;;5027708;28;20192;-51
2023/06/25 02:01:40;;;;;;;6.40;3.70;;;;;;;;;;5018152;28;20195;-51
2023/06/25 02:04:06;;;;;;;4.65;3.50;;;;;;;;;;5033504;28;20180;-51
2023/06/25 02:06:32;;;;;;;4.57;3.60;;;;;;;;;;5024546;28;20219;-51
2023/06/25 02:08:58;;;;;;;5.70;3.83;;;;;;;;;;5033180;28;20204;-51
2023/06/25 02:11:24;;;;;;;4.20;3.50;;;;;;;;;;5025396;28;20195;-52
2023/06/25 02:13:50;;;;;;;4.95;3.40;;;;;;;;;;5030153;28;20302;-51
2023/06/25 02:16:16;;;;;;;4.53;4.00;;;;;;;;;;5022702;28;20184;-51
2023/06/25 02:18:42;;;;;;;3.90;3.50;;;;;;;;;;5033701;28;20180;-51
2023/06/25 02:21:08;;;;;;;6.38;3.70;;;;;;;;;;5025746;28;20230;-51
2023/06/25 02:23:34;;;;;;;5.15;3.90;;;;;;;;;;5036785;28;20176;-51
2023/06/25 02:25:59;;;;;;;3.75;3.45;;;;;;;;;;5024273;28;20438;-51
2023/06/25 02:28:25;;;;;;;5.72;3.65;;;;;;;;;;5024024;28;20187;-51
2023/06/25 02:30:51;;;;;;;3.70;3.30;;;;;;;;;;5003428;28;20188;-51
2023/06/25 02:33:17;;;;;;;4.05;3.50;;;;;;;;;;5036936;28;20294;-51
2023/06/25 02:35:43;;;;;;;4.95;3.95;;;;;;;;;;5027060;28;20188;-51
2023/06/25 02:38:09;;;;;;;4.57;3.70;;;;;;;;;;5034656;28;20186;-51
2023/06/25 02:40:35;;;;;;;4.85;3.60;;;;;;;;;;5028245;28;20210;-51
2023/06/25 02:43:01;;;;;;;4.10;3.58;;;;;;;;;;5035972;28;20188;-51
2023/06/25 02:45:28;;;;;;;3.60;3.15;;;;;;;;;;5031611;28;20390;-51
2023/06/25 02:47:53;;;;;;;3.60;3.25;;;;;;;;;;5039390;28;20187;-51
2023/06/25 02:50:19;;;;;;;5.55;3.80;;;;;;;;;;5026528;28;20173;-51
2023/06/25 02:52:45;;;;;;;6.28;3.72;;;;;;;;;;5018244;28;20524;-51
2023/06/25 02:55:11;;;;;;;4.82;3.30;;;;;;;;;;5031345;28;20215;-51
2023/06/25 02:57:37;;;;;;;3.78;3.47;;;;;;;;;;5023757;28;20450;-51
2023/06/25 03:00:04;;;;;;;4.47;3.33;;;;;;;;;;5035975;28;20218;-51
2023/06/25 03:02:31;;;;;;;3.80;3.40;;;;;;;;;;5021159;28;20199;-51
2023/06/25 03:04:56;;;;;;;5.90;3.50;;;;;;;;;;5034211;28;20567;-51
2023/06/25 03:07:23;;;;;;;4.15;3.15;;;;;;;;;;5028709;28;20183;-51
2023/06/25 03:09:48;;;;;;;4.75;3.47;;;;;;;;;;5034442;28;20259;-52
2023/06/25 03:12:14;;;;;;;5.22;3.40;;;;;;;;;;5022777;28;20275;-51
2023/06/25 03:14:40;;;;;;;4.70;3.17;;;;;;;;;;5033004;28;20278;-51
2023/06/25 03:17:06;;;;;;;4.15;3.55;;;;;;;;;;5035325;28;20202;-51
2023/06/25 03:19:33;;;;;;;8.25;4.28;;;;;;;;;;5028538;28;20180;-51
2023/06/25 03:21:59;;;;;;;4.78;3.92;;;;;;;;;;5019509;28;20218;-51
2023/06/25 03:24:25;;;;;;;3.70;3.40;;;;;;;;;;5037890;28;20496;-51
2023/06/25 03:26:51;;;;;;;3.42;3.13;;;;;;;;;;5033692;28;20195;-51
2023/06/25 03:29:17;;;;;;;6.38;3.63;;;;;;;;;;5029156;28;20204;-52
2023/06/25 03:31:43;;;;;;;3.58;3.17;;;;;;;;;;5035252;28;20321;-52
2023/06/25 03:34:09;;;;;;;3.63;3.13;;;;;;;;;;5026906;28;20215;-52
2023/06/25 03:36:35;;;;;;;5.45;3.05;;;;;;;;;;5035313;28;20191;-52
2023/06/25 03:39:01;;;;;;;3.75;3.20;;;;;;;;;;5035140;28;20199;-52
2023/06/25 03:41:28;;;;;;;4.78;3.10;;;;;;;;;;5032791;28;20188;-52
2023/06/25 03:43:54;;;;;;;4.72;3.10;;;;;;;;;;5027417;28;20180;-52
2023/06/25 03:46:20;;;;;;;3.70;3.33;;;;;;;;;;5029248;28;20546;-52
2023/06/25 03:48:46;;;;;;;5.22;3.25;;;;;;;;;;5032336;28;20196;-52
2023/06/25 03:51:12;;;;;;;3.58;3.00;;;;;;;;;;5031286;28;20184;-52
2023/06/25 03:53:41;;;;;;;3.78;3.00;;;;;;;;;;5021644;28;20535;-51
2023/06/25 03:56:07;;;;;;;5.30;3.20;;;;;;;;;;5016946;28;20261;-51
2023/06/25 03:58:34;;;;;;;3.85;3.40;;;;;;;;;;5031647;28;20183;-51
2023/06/25 04:01:00;;;;;;;3.10;2.80;;;;;;;;;;5032540;28;20215;-52
2023/06/25 04:03:26;;;;;;;3.90;3.28;;;;;;;;;;5035086;28;20193;-52
2023/06/25 04:05:52;;;;;;;4.50;2.97;;;;;;;;;;5033261;28;20184;-52
2023/06/25 04:08:18;;;;;;;4.07;3.30;;;;;;;;;;5028271;28;20246;-52
2023/06/25 04:10:44;;;;;;;3.38;3.05;;;;;;;;;;5026573;28;20290;-52
2023/06/25 04:13:09;;;;;;;4.25;3.05;;;;;;;;;;5018591;28;20439;-52
2023/06/25 04:15:35;;;;;;;3.38;3.00;;;;;;;;;;5025552;28;20243;-52
2023/06/25 04:18:01;;;;;;;4.28;3.20;;;;;;;;;;5027592;28;20207;-52
2023/06/25 04:20:27;;;;;;;3.45;3.03;;;;;;;;;;5034553;28;20180;-52
2023/06/25 04:22:54;;;;;;;3.35;3.05;;;;;;;;;;5034112;28;20481;-52
2023/06/25 04:25:20;;;;;;;4.28;3.00;;;;;;;;;;5030944;28;20183;-52
2023/06/25 04:27:46;;;;;;;3.50;3.13;;;;;;;;;;5026476;28;20212;-52
2023/06/25 04:30:12;;;;;;;3.17;2.67;;;;;;;;;;5026542;28;20909;-52
2023/06/25 04:32:38;;;;;;;3.40;3.10;;;;;;;;;;5027425;28;20184;-52
2023/06/25 04:35:04;;;;;;;5.93;3.10;;;;;;;;;;5024987;28;20211;-52
2023/06/25 04:37:30;;;;;;;4.78;3.30;;;;;;;;;;5026250;28;20179;-52
2023/06/25 04:39:56;;;;;;;4.97;3.25;;;;;;;;;;5033004;28;20210;-52
2023/06/25 04:42:22;;;;;;;4.90;3.17;;;;;;;;;;5021127;28;20212;-52
2023/06/25 04:44:48;;;;;;;3.78;3.28;;;;;;;;;;5023071;28;20186;-52
2023/06/25 04:47:14;;;;;;;4.35;2.88;;;;;;;;;;5027955;28;20441;-52
2023/06/25 04:49:40;;;;;;;3.75;3.08;;;;;;;;;;5023438;28;20188;-52
2023/06/25 04:52:06;;;;;;;4.40;2.90;;;;;;;;;;5016926;28;20191;-52
2023/06/25 04:54:32;;;;;;;5.80;3.08;;;;;;;;;;5031266;28;20635;-52
2023/06/25 04:56:58;;;;;;;3.33;3.03;;;;;;;;;;5032412;28;20253;-52
2023/06/25 04:59:24;;;;;;;4.97;3.05;;;;;;;;;;5033524;28;20310;-52
2023/06/25 05:01:50;;;;;;;3.05;2.75;;;;;;;;;;5019755;28;20259;-52
2023/06/25 05:04:15;;;;;;;2.83;2.63;;;;;;;;;;5037036;28;20669;-52
2023/06/25 05:06:41;;;;;;;3.92;3.17;;;;;;;;;;5023052;28;20199;-52
2023/06/25 05:09:07;;;;;;;4.00;3.22;;;;;;;;;;5032842;28;20467;-52
2023/06/25 05:11:33;;;;;;;5.22;3.00;;;;;;;;;;5027746;28;20571;-52
2023/06/25 05:13:59;;;;;;;3.00;2.72;;;;;;;;;;5030425;28;20480;-52
2023/06/25 05:16:25;;;;;;;3.10;2.60;;;;;;;;;;5023422;28;20577;-52
2023/06/25 05:18:51;;;;;;;3.40;2.92;;;;;;;;;;5025224;28;20544;-52
2023/06/25 05:21:17;;;;;;;3.03;2.72;;;;;;;;;;5029392;28;20261;-52
2023/06/25 05:23:44;;;;;;;3.53;2.67;;;;;;;;;;5024060;28;20446;-52
2023/06/25 05:26:10;;;;;;;3.20;2.90;;;;;;;;;;5037187;28;20176;-52
2023/06/25 05:28:36;;;;;;;3.55;3.25;;;;;;;;;;5013162;28;20192;-52
2023/06/25 05:31:02;;;;;;;3.45;3.10;;;;;;;;;;5023318;28;20195;-52
2023/06/25 05:33:28;;;;;;;5.43;2.90;;;;;;;;;;5025424;28;20211;-52
2023/06/25 05:35:53;;;;;;;3.17;2.63;;;;;;;;;;5038580;28;20186;-53
2023/06/25 05:38:19;;;;;;;3.97;3.13;;;;;;;;;;5026606;28;20179;-52
2023/06/25 05:40:45;;;;;;;3.67;3.03;;;;;;;;;;5033190;28;20230;-52
2023/06/25 05:43:11;;;;;;;3.60;3.30;;;;;;;;;;5035817;28;20218;-52
2023/06/25 05:45:38;;;;;;;4.35;3.00;;;;;;;;;;5008671;28;20183;-52
2023/06/25 05:48:04;;;;;;;3.10;2.80;;;;;;;;;;5035382;28;20183;-52
2023/06/25 05:50:30;;;;;;;3.47;3.08;;;;;;;;;;5036704;28;20194;-52
2023/06/25 05:52:56;;;;;;;3.33;3.03;;;;;;;;;;5036750;28;20647;-52
2023/06/25 05:55:22;;;;;;;4.38;2.85;;;;;;;;;;5042962;28;20244;-52
2023/06/25 05:57:48;;;;;;;3.88;3.10;;;;;;;;;;5024932;28;20183;-52
2023/06/25 06:00:14;;;;;;;3.08;2.67;;;;;;;;;;5037111;28;20180;-52
2023/06/25 06:02:39;;;;;;;3.35;2.83;;;;;;;;;;5037494;28;20254;-52
2023/06/25 06:05:06;;;;;;;4.68;3.13;;;;;;;;;;5037852;28;20255;-52
2023/06/25 06:07:32;;;;;;;5.07;2.72;;;;;;;;;;5044974;28;20186;-52
2023/06/25 06:09:58;;;;;;;3.55;2.65;;;;;;;;;;5035857;28;20180;-52
2023/06/25 06:12:25;;;;;;;3.60;2.70;;;;;;;;;;5035519;28;20492;-52
2023/06/25 06:14:50;;;;;;;3.13;2.83;;;;;;;;;;5037010;28;20203;-52
2023/06/25 06:17:16;;;;;;;3.50;3.15;;;;;;;;;;5036126;28;20180;-52
2023/06/25 06:19:42;;;;;;;5.53;3.55;;;;;;;;;;5042397;28;20660;-52
2023/06/25 06:22:08;;;;;;;3.92;3.00;;;;;;;;;;5052727;28;20180;-51
2023/06/25 06:24:34;;;;;;;3.08;2.75;;;;;;;;;;5038619;28;20179;-52
2023/06/25 06:27:00;;;;;;;4.28;3.35;;;;;;;;;;5035155;28;20574;-52
2023/06/25 06:29:26;;;;;;;8.95;5.20;;;;;;;;;;5041275;28;20184;-52
2023/06/25 06:31:52;;;;;;;5.93;4.47;;;;;;;;;;5036527;28;20192;-52
2023/06/25 06:34:18;;;;;;;7.30;4.65;;;;;;;;;;5043791;28;20219;-51
2023/06/25 06:36:44;;;;;;;8.18;4.65;;;;;;;;;;5030173;28;20177;-51
2023/06/25 06:39:09;;;;;;;7.18;4.65;;;;;;;;;;5035366;28;20191;-51
2023/06/25 06:41:35;;;;;;;7.90;4.40;;;;;;;;;;5031464;28;20179;-52
2023/06/25 06:44:16;;;;;;;7.25;4.20;;;;;;;;;;5032814;28;20196;-52
2023/06/25 06:46:42;;;;;;;6.40;3.97;;;;;;;;;;5030115;28;20234;-51
2023/06/25 06:49:08;;;;;;;6.20;3.88;;;;;;;;;;5035813;28;20215;-52
2023/06/25 06:51:35;;;;;;;5.18;4.22;;;;;;;;;;5036089;28;20176;-52
2023/06/25 06:54:01;;;;;;;4.38;3.78;;;;;;;;;;5035728;28;20208;-52
2023/06/25 06:56:27;;;;;;;4.07;3.63;;;;;;;;;;5039009;28;20182;-52
2023/06/25 06:58:53;;;;;;;4.95;3.53;;;;;;;;;;5038133;28;20437;-52
2023/06/25 07:01:19;;;;;;;4.43;3.50;;;;;;;;;;5035420;28;20287;-52
2023/06/25 07:03:45;;;;;;;4.80;3.45;;;;;;;;;;5037038;28;20276;-52
2023/06/25 07:06:11;;;;;;;5.88;3.63;;;;;;;;;;5033986;28;20179;-52
2023/06/25 07:08:37;;;;;;;5.10;3.92;;;;;;;;;;5025236;28;20194;-52
2023/06/25 07:11:03;;;;;;;8.30;3.50;;;;;;;;;;5034866;28;20196;-52
2023/06/25 07:13:30;;;;;;;4.45;3.13;;;;;;;;;;5035580;28;20227;-52
2023/06/25 07:15:56;;;;;;;5.22;3.40;;;;;;;;;;5042806;28;20562;-52
2023/06/25 07:18:22;;;;;;;5.38;3.60;;;;;;;;;;5046961;28;20297;-52
2023/06/25 07:20:48;;;;;;;5.22;4.22;;;;;;;;;;5034965;28;20180;-52
2023/06/25 07:23:14;;;;;;;4.07;2.88;;;;;;;;;;5043790;28;20180;-52
2023/06/25 07:25:40;;;;;;;3.47;3.00;;;;;;;;;;5038373;28;20728;-52
2023/06/25 07:28:08;;;;;;;4.47;3.25;;;;;;;;;;5034587;28;20176;-52
2023/06/25 07:30:34;;;;;;;4.25;3.30;;;;;;;;;;5047722;28;20191;-52
2023/06/25 07:33:00;;;;;;;3.40;3.10;;;;;;;;;;5027959;28;20191;-52
2023/06/25 07:35:26;;;;;;;4.10;3.38;;;;;;;;;;5033754;28;20207;-52
2023/06/25 07:37:52;;;;;;;5.15;3.17;;;;;;;;;;5037281;28;20176;-52
2023/06/25 07:40:18;;;;;;;5.68;3.20;;;;;;;;;;5024584;28;20204;-52
2023/06/25 07:42:44;;;;;;;5.53;3.88;;;;;;;;;;5034783;28;20172;-52
2023/06/25 07:45:11;;;;;;;4.88;3.80;;;;;;;;;;5034925;28;20183;-52
2023/06/25 07:47:37;;;;;;;4.32;3.60;;;;;;;;;;5035007;28;20172;-52
2023/06/25 07:50:03;;;;;;;5.00;3.63;;;;;;;;;;5035325;28;20241;-52
2023/06/25 07:52:29;;;;;;;4.65;3.42;;;;;;;;;;5009528;28;20180;-52
2023/06/25 07:54:55;;;;;;;5.30;3.67;;;;;;;;;;5027361;28;20223;-52
2023/06/25 07:57:21;;;;;;;5.10;3.92;;;;;;;;;;5033929;28;20207;-52
2023/06/25 07:59:46;;;;;;;4.30;3.65;;;;;;;;;;5040715;28;20611;-52
2023/06/25 08:02:12;;;;;;;11.27;4.00;;;;;;;;;;5029227;28;20259;-52
2023/06/25 08:04:38;;;;;;;5.22;3.65;;;;;;;;;;5040678;28;20214;-55
2023/06/25 08:07:04;;;;;;;7.00;3.53;;;;;;;;;;5033692;28;20186;-55
2023/06/25 08:09:31;;;;;;;5.93;4.13;;;;;;;;;;5032238;28;20255;-55
2023/06/25 08:11:57;;;;;;;5.80;3.70;;;;;;;;;;5034278;28;20301;-55
2023/06/25 08:14:23;;;;;;;9.88;4.22;;;;;;;;;;5040373;28;20208;-55
2023/06/25 08:16:50;;;;;;;3.90;3.47;;;;;;;;;;5034355;28;20179;-55
2023/06/25 08:19:16;;;;;;;4.28;3.38;;;;;;;;;;5035141;28;20254;-56
2023/06/25 08:21:41;;;;;;;3.25;2.92;;;;;;;;;;5041400;28;20311;-55
2023/06/25 08:24:07;;;;;;;4.32;3.67;;;;;;;;;;5037930;28;20179;-56
2023/06/25 08:26:33;;;;;;;4.15;3.75;;;;;;;;;;5033964;28;20184;-56
2023/06/25 08:28:59;;;;;;;4.55;3.65;;;;;;;;;;5034742;28;20186;-56
2023/06/25 08:31:26;;;;;;;3.85;3.20;;;;;;;;;;5033422;28;20430;-56
2023/06/25 08:33:52;;;;;;;3.90;3.50;;;;;;;;;;5033627;28;20200;-56
2023/06/25 08:36:18;;;;;;;4.35;3.72;;;;;;;;;;5033597;28;20188;-56
2023/06/25 08:38:44;;;;;;;5.15;3.88;;;;;;;;;;5037034;28;20208;-56
2023/06/25 08:41:10;;;;;;;4.25;3.55;;;;;;;;;;5033976;28;20555;-56
2023/06/25 08:43:36;;;;;;;8.55;3.67;;;;;;;;;;5038963;28;20188;-56
2023/06/25 08:46:02;;;;;;;3.75;3.42;;;;;;;;;;5047480;28;20191;-56
2023/06/25 08:48:29;;;;;;;4.53;3.47;;;;;;;;;;5053787;28;20183;-56
2023/06/25 08:50:56;;;;;;;3.88;3.40;;;;;;;;;;5035079;28;20543;-56
2023/06/25 08:53:24;;;;;;;3.92;3.53;;;;;;;;;;5032755;28;20184;-56
2023/06/25 08:55:51;;;;;;;4.07;2.95;;;;;;;;;;5033333;28;20199;-56
2023/06/25 08:58:17;;;;;;;4.35;3.47;;;;;;;;;;5016432;28;20456;-55
2023/06/25 09:00:43;;;;;;;3.67;3.35;;;;;;;;;;5033708;28;20199;-55
2023/06/25 09:03:09;;;;;;;3.45;3.13;;;;;;;;;;5035892;28;20183;-56
2023/06/25 09:05:35;;;;;;;4.63;3.70;;;;;;;;;;5040101;28;20180;-56
2023/06/25 09:08:01;;;;;;;4.47;3.60;;;;;;;;;;5034330;28;20183;-56
2023/06/25 09:10:31;;;;;;;3.28;2.97;;;;;;;;;;5033322;28;20318;-57
2023/06/25 09:12:57;;;;;;;5.68;3.50;;;;;;;;;;5033864;28;20903;-56
2023/06/25 09:15:26;;;;;;;3.78;3.30;;;;;;;;;;5034175;28;20214;-56
2023/06/25 09:17:55;;;;;;;3.63;3.28;;;;;;;;;;5037870;28;20179;-56
2023/06/25 09:20:22;;;;;;;4.43;3.60;;;;;;;;;;5031455;28;20250;-55
2023/06/25 09:22:55;;;;;;;4.20;3.42;;;;;;;;;;5033535;28;20445;-56
2023/06/25 09:25:22;;;;;;;4.18;3.38;;;;;;;;;;5037196;28;20182;-56
2023/06/25 09:27:48;;;;;;;4.78;3.78;;;;;;;;;;5039772;28;20198;-56
2023/06/25 09:30:16;;;;;;;6.25;3.63;;;;;;;;;;5042022;28;20211;-56
2023/06/25 09:32:52;;;;;;;5.38;4.03;;;;;;;;;;5025858;28;20183;-56
2023/06/25 09:35:19;;;;;;;6.03;3.95;;;;;;;;;;5031937;28;20576;-56
2023/06/25 09:37:45;;;;;;;3.80;3.40;;;;;;;;;;5036298;28;20188;-57
2023/06/25 09:40:11;;;;;;;3.60;3.28;;;;;;;;;;5028399;28;20196;-56
2023/06/25 09:42:37;;;;;;;5.88;3.65;;;;;;;;;;5036006;28;20180;-56
2023/06/25 09:45:04;;;;;;;4.47;3.22;;;;;;;;;;5038575;28;20188;-56
2023/06/25 09:47:30;;;;;;;4.63;3.60;;;;;;;;;;5032809;28;20198;-56
2023/06/25 09:49:56;;;;;;;4.25;3.55;;;;;;;;;;5032979;28;20467;-56
2023/06/25 09:52:23;;;;;;;3.90;3.50;;;;;;;;;;5033200;28;20266;-57
2023/06/25 09:54:49;;;;;;;4.25;3.83;;;;;;;;;;5032944;28;20540;-55
2023/06/25 09:57:17;;;;;;;4.00;3.60;;;;;;;;;;5032891;28;20219;-56
2023/06/25 09:59:43;;;;;;;5.95;3.65;;;;;;;;;;5033333;28;20206;-56
2023/06/25 10:02:09;;;;;;;4.10;3.50;;;;;;;;;;5033211;28;20255;-56
2023/06/25 10:04:37;;;;;;;5.65;3.85;;;;;;;;;;5032745;28;20242;-56
2023/06/25 10:07:04;;;;;;;4.35;3.65;;;;;;;;;;5029337;28;20282;-56
2023/06/25 10:09:30;;;;;;;3.97;3.58;;;;;;;;;;5032419;28;20535;-56
2023/06/25 10:11:56;;;;;;;3.50;3.20;;;;;;;;;;5033894;28;20200;-56
2023/06/25 10:14:22;;;;;;;3.63;3.22;;;;;;;;;;5032679;28;20211;-57
2023/06/25 10:16:57;;;;;;;3.30;3.00;;;;;;;;;;5028694;28;20548;-57
2023/06/25 10:19:24;;;;;;;3.92;3.33;;;;;;;;;;5031895;28;20238;-56
2023/06/25 10:22:00;;;;;;;3.58;3.25;;;;;;;;;;5038162;28;20171;-56
2023/06/25 10:24:26;;;;;;;4.03;3.25;;;;;;;;;;5029174;28;20241;-56
2023/06/25 10:26:54;;;;;;;4.72;3.55;;;;;;;;;;5034216;28;20538;-56
2023/06/25 10:29:20;;;;;;;3.60;3.30;;;;;;;;;;5029656;28;20302;-57
2023/06/25 10:31:47;;;;;;;3.95;3.25;;;;;;;;;;5026778;28;20338;-57
2023/06/25 10:34:13;;;;;;;3.90;3.22;;;;;;;;;;5028847;28;20207;-57
2023/06/25 10:36:50;;;;;;;4.32;3.75;;;;;;;;;;5035894;28;20469;-57
2023/06/25 10:39:16;;;;;;;4.95;3.25;;;;;;;;;;5033803;28;20649;-57
2023/06/25 10:41:46;;;;;;;3.83;3.42;;;;;;;;;;5046751;28;20264;-57
2023/06/25 10:44:11;;;;;;;3.85;3.33;;;;;;;;;;5041001;28;20175;-57
2023/06/25 10:46:37;;;;;;;4.22;3.13;;;;;;;;;;5035498;28;20195;-57
2023/06/25 10:49:03;;;;;;;3.47;3.17;;;;;;;;;;5036204;28;20258;-55
2023/06/25 10:51:29;;;;;;;3.40;3.10;;;;;;;;;;5036765;28;20708;-56
2023/06/25 10:53:56;;;;;;;3.10;2.80;;;;;;;;;;5056325;28;20293;-57
2023/06/25 10:56:22;;;;;;;3.92;3.50;;;;;;;;;;5040518;28;20187;-56
2023/06/25 10:58:55;;;;;;;4.22;3.25;;;;;;;;;;5039399;28;20180;-56
2023/06/25 11:01:21;;;;;;;5.43;3.78;;;;;;;;;;5040413;28;20516;-56
2023/06/25 11:03:47;;;;;;;5.45;3.63;;;;;;;;;;5035467;28;20310;-56
2023/06/25 11:06:13;;;;;;;3.85;3.25;;;;;;;;;;5018347;28;20176;-56
2023/06/25 11:08:41;;;;;;;3.90;3.10;;;;;;;;;;5035387;28;20215;-56
2023/06/25 11:11:07;;;;;;;5.25;3.67;;;;;;;;;;5028601;28;20267;-57
2023/06/25 11:13:33;;;;;;;4.28;3.33;;;;;;;;;;5035178;28;20342;-56
2023/06/25 11:15:59;;;;;;;4.38;3.70;;;;;;;;;;5039567;28;20183;-57
2023/06/25 11:18:25;;;;;;;4.05;3.45;;;;;;;;;;5055092;28;20206;-57
2023/06/25 11:20:53;;;;;;;3.85;3.38;;;;;;;;;;5035613;28;20190;-56
2023/06/25 11:23:19;;;;;;;3.10;2.65;;;;;;;;;;5035871;28;20176;-57
2023/06/25 11:25:45;;;;;;;3.38;3.08;;;;;;;;;;5039526;28;20203;-57
2023/06/25 11:28:12;;;;;;;3.42;3.13;;;;;;;;;;5034741;28;20425;-57
2023/06/25 11:30:39;;;;;;;4.93;3.40;;;;;;;;;;5035736;28;20192;-56
2023/06/25 11:33:11;;;;;;;3.40;3.03;;;;;;;;;;5035667;28;20234;-57
2023/06/25 11:35:38;;;;;;;3.72;3.33;;;;;;;;;;5025941;28;20237;-57
2023/06/25 11:38:04;;;;;;;3.88;3.10;;;;;;;;;;5032990;28;20180;-57
2023/06/25 11:40:30;;;;;;;3.60;3.30;;;;;;;;;;5034427;28;20210;-56
2023/06/25 11:42:56;;;;;;;3.63;3.17;;;;;;;;;;5035520;28;20180;-57
2023/06/25 11:45:23;;;;;;;3.63;3.28;;;;;;;;;;5035107;28;20279;-57
2023/06/25 11:47:53;;;;;;;3.90;3.30;;;;;;;;;;5034960;28;20192;-57
2023/06/25 11:50:26;;;;;;;3.80;3.25;;;;;;;;;;5028209;28;20189;-57
2023/06/25 11:52:55;;;;;;;4.22;3.05;;;;;;;;;;5037548;28;20191;-57
2023/06/25 11:55:21;;;;;;;3.42;3.13;;;;;;;;;;5035032;28;20203;-57
2023/06/25 11:57:50;;;;;;;3.75;3.33;;;;;;;;;;5031894;28;20191;-57
2023/06/25 12:00:16;;;;;;;6.40;3.78;;;;;;;;;;5029342;28;20190;-57
2023/06/25 12:02:42;;;;;;;5.32;3.25;;;;;;;;;;5048044;28;20176;-57
2023/06/25 12:05:09;;;;;;;5.10;3.60;;;;;;;;;;5035305;28;20263;-56
2023/06/25 12:07:35;;;;;;;6.78;3.50;;;;;;;;;;5030781;28;20537;-57
2023/06/25 12:10:01;;;;;;;4.45;3.28;;;;;;;;;;5027704;28;20233;-57
2023/06/25 12:12:27;;;;;;;3.92;3.25;;;;;;;;;;5034476;28;20204;-57
2023/06/25 12:14:53;;;;;;;3.88;3.22;;;;;;;;;;5018341;28;20200;-57
2023/06/25 12:17:19;;;;;;;3.40;3.10;;;;;;;;;;5033871;28;20215;-57
2023/06/25 12:19:44;;;;;;;4.35;3.55;;;;;;;;;;5033947;28;20329;-57
2023/06/25 12:22:11;;;;;;;4.57;3.50;;;;;;;;;;5034471;28;20258;-57
2023/06/25 12:24:38;;;;;;;5.00;3.42;;;;;;;;;;5041676;28;20198;-57
2023/06/25 12:27:03;;;;;;;4.75;3.45;;;;;;;;;;5034088;28;20187;-57
2023/06/25 12:29:29;;;;;;;3.65;3.22;;;;;;;;;;5034132;28;20195;-57
2023/06/25 12:31:55;;;;;;;4.30;3.10;;;;;;;;;;5034297;28;20184;-57
2023/06/25 12:34:21;;;;;;;3.53;3.20;;;;;;;;;;5033232;28;20215;-57
2023/06/25 12:36:47;;;;;;;4.70;3.15;;;;;;;;;;5041802;28;20183;-57
2023/06/25 12:39:13;;;;;;;3.45;2.88;;;;;;;;;;5033703;28;20192;-56
2023/06/25 12:41:39;;;;;;;4.53;3.40;;;;;;;;;;5025836;28;20242;-57
2023/06/25 12:44:05;;;;;;;4.18;3.78;;;;;;;;;;5034331;28;20200;-57
2023/06/25 12:46:31;;;;;;;3.17;2.88;;;;;;;;;;5025525;28;20220;-57
2023/06/25 12:48:57;;;;;;;9.70;3.00;;;;;;;;;;5032797;28;20565;-57
2023/06/25 12:51:23;;;;;;;3.75;3.30;;;;;;;;;;5031879;28;20191;-57
2023/06/25 12:53:49;;;;;;;4.10;3.45;;;;;;;;;;5031617;28;20211;-57
2023/06/25 12:56:15;;;;;;;5.05;3.63;;;;;;;;;;5027945;28;20578;-57
2023/06/25 12:58:41;;;;;;;4.35;3.55;;;;;;;;;;5031974;28;20199;-58
2023/06/25 13:01:07;;;;;;;3.55;3.20;;;;;;;;;;5033576;28;20176;-57
2023/06/25 13:03:33;;;;;;;3.50;2.95;;;;;;;;;;5033811;28;20259;-57
2023/06/25 13:05:59;;;;;;;4.70;3.20;;;;;;;;;;5033153;28;20270;-58
2023/06/25 13:08:26;;;;;;;3.60;3.20;;;;;;;;;;5033363;28;20250;-57
2023/06/25 13:10:52;;;;;;;4.70;3.70;;;;;;;;;;5032963;28;20218;-56
2023/06/25 13:13:18;;;;;;;3.30;3.00;;;;;;;;;;5033953;28;20175;-57
2023/06/25 13:15:44;;;;;;;3.47;3.17;;;;;;;;;;5033535;28;20570;-58
2023/06/25 13:18:10;;;;;;;4.85;3.67;;;;;;;;;;5048193;28;20180;-57
2023/06/25 13:20:36;;;;;;;3.63;3.08;;;;;;;;;;5025754;28;20179;-57
2023/06/25 13:23:01;;;;;;;3.90;3.53;;;;;;;;;;5020544;28;20426;-58
2023/06/25 13:25:28;;;;;;;3.00;2.70;;;;;;;;;;5041091;28;20230;-58
2023/06/25 13:27:54;;;;;;;3.95;3.40;;;;;;;;;;5033270;28;20234;-57
2023/06/25 13:30:20;;;;;;;3.35;3.00;;;;;;;;;;5039126;28;20503;-57
2023/06/25 13:32:46;;;;;;;3.70;3.40;;;;;;;;;;5036117;28;20568;-57
2023/06/25 13:35:12;;;;;;;3.25;2.95;;;;;;;;;;5033180;28;20204;-57
2023/06/25 13:37:38;;;;;;;3.70;2.80;;;;;;;;;;5032856;28;20194;-57
2023/06/25 13:40:04;;;;;;;3.80;3.50;;;;;;;;;;5032266;28;20199;-57
2023/06/25 13:42:30;;;;;;;3.28;2.83;;;;;;;;;;5033371;28;20187;-58
2023/06/25 13:44:58;;;;;;;3.33;3.03;;;;;;;;;;5031083;28;20188;-57
2023/06/25 13:47:24;;;;;;;3.63;3.20;;;;;;;;;;5038778;28;20187;-57
2023/06/25 13:49:50;;;;;;;5.90;3.42;;;;;;;;;;5027144;28;20235;-57
2023/06/25 13:52:16;;;;;;;7.47;3.50;;;;;;;;;;5033855;28;20179;-57
2023/06/25 13:54:42;;;;;;;3.95;3.20;;;;;;;;;;5027221;28;20199;-62
2023/06/25 13:57:08;;;;;;;3.20;2.90;;;;;;;;;;5033889;28;20180;-57
2023/06/25 13:59:34;;;;;;;4.00;2.80;;;;;;;;;;5028965;28;20269;-58
2023/06/25 14:02:00;;;;;;;3.25;2.95;;;;;;;;;;5033070;28;20594;-58
2023/06/25 14:04:25;;;;;;;3.33;3.00;;;;;;;;;;5033324;28;20191;-57
2023/06/25 14:06:51;;;;;;;4.13;3.10;;;;;;;;;;5040788;28;20246;-57
2023/06/25 14:09:18;;;;;;;4.05;2.88;;;;;;;;;;5035074;28;20875;-58
2023/06/25 14:11:44;;;;;;;3.70;3.28;;;;;;;;;;5028365;28;20868;-58
2023/06/25 14:14:10;;;;;;;4.75;3.20;;;;;;;;;;5046897;28;20209;-57
2023/06/25 14:16:36;;;;;;;3.55;3.05;;;;;;;;;;5029857;28;20191;-58
2023/06/25 14:19:02;;;;;;;3.75;3.05;;;;;;;;;;5038102;28;20227;-57
2023/06/25 14:21:28;;;;;;;4.07;3.35;;;;;;;;;;5036876;28;20274;-57
2023/06/25 14:23:55;;;;;;;5.05;3.33;;;;;;;;;;5036785;28;20180;-57
2023/06/25 14:26:21;;;;;;;3.65;3.35;;;;;;;;;;5036891;28;20191;-56
2023/06/25 14:28:47;;;;;;;3.70;3.20;;;;;;;;;;5036080;28;20188;-56
2023/06/25 14:31:13;;;;;;;3.95;2.97;;;;;;;;;;5039814;28;20230;-57
2023/06/25 14:33:39;;;;;;;3.45;3.15;;;;;;;;;;5036567;28;20253;-56
2023/06/25 14:36:05;;;;;;;5.65;3.10;;;;;;;;;;5036162;28;21618;-56
2023/06/25 14:38:31;;;;;;;4.00;3.20;;;;;;;;;;5036421;28;20180;-56